sensor_id;sensor_type;location;lat;lon;timestamp;P1;durP1;ratioP1;P2;durP2;ratioP2
54259;SDS011;40172;53.022;7.012;2023-04-24T00:00:00;1.55;;;0.57;;
54259;SDS011;40172;53.022;7.012;2023-04-24T00:02:30;1.17;;;0.70;;
54259;SDS011;40172;53.022;7.012;2023-04-24T00:04:56;3.70;;;0.68;;
54259;SDS011;40172;53.022;7.012;2023-04-24T00:07:22;2.90;;;0.77;;
54259;SDS011;40172;53.022;7.012;2023-04-24T00:09:47;1.38;;;0.80;;
54259;SDS011;40172;53.022;7.012;2023-04-24T00:12:13;3.95;;;1.08;;
54259;SDS011;40172;53.022;7.012;2023-04-24T00:14:39;1.25;;;0.93;;
54259;SDS011;40172;53.022;7.012;2023-04-24T00:17:04;2.00;;;0.85;;
54259;SDS011;40172;53.022;7.012;2023-04-24T00:19:30;4.75;;;1.48;;
54259;SDS011;40172;53.022;7.012;2023-04-24T00:21:56;2.33;;;1.10;;
54259;SDS011;40172;53.022;7.012;2023-04-24T00:24:21;2.42;;;1.20;;
54259;SDS011;40172;53.022;7.012;2023-04-24T00:26:47;1.52;;;1.42;;
54259;SDS011;40172;53.022;7.012;2023-04-24T00:29:13;2.00;;;1.83;;
54259;SDS011;40172;53.022;7.012;2023-04-24T00:31:38;2.83;;;1.85;;
54259;SDS011;40172;53.022;7.012;2023-04-24T00:34:07;2.35;;;1.92;;
54259;SDS011;40172;53.022;7.012;2023-04-24T00:36:33;2.30;;;2.10;;
54259;SDS011;40172;53.022;7.012;2023-04-24T00:38:58;2.60;;;2.30;;
54259;SDS011;40172;53.022;7.012;2023-04-24T00:41:24;2.80;;;2.60;;
54259;SDS011;40172;53.022;7.012;2023-04-24T00:43:51;4.28;;;2.60;;
54259;SDS011;40172;53.022;7.012;2023-04-24T00:46:17;3.35;;;3.05;;
54259;SDS011;40172;53.022;7.012;2023-04-24T00:48:43;3.53;;;3.22;;
54259;SDS011;40172;53.022;7.012;2023-04-24T00:51:09;3.70;;;3.28;;
54259;SDS011;40172;53.022;7.012;2023-04-24T00:53:35;3.85;;;3.50;;
54259;SDS011;40172;53.022;7.012;2023-04-24T00:56:01;4.32;;;3.92;;
54259;SDS011;40172;53.022;7.012;2023-04-24T00:58:27;4.55;;;3.95;;
54259;SDS011;40172;53.022;7.012;2023-04-24T01:00:53;5.13;;;4.63;;
54259;SDS011;40172;53.022;7.012;2023-04-24T01:03:25;4.88;;;4.47;;
54259;SDS011;40172;53.022;7.012;2023-04-24T01:05:54;5.20;;;4.80;;
54259;SDS011;40172;53.022;7.012;2023-04-24T01:08:20;5.63;;;4.82;;
54259;SDS011;40172;53.022;7.012;2023-04-24T01:10:52;6.10;;;4.97;;
54259;SDS011;40172;53.022;7.012;2023-04-24T01:13:21;5.65;;;4.88;;
54259;SDS011;40172;53.022;7.012;2023-04-24T01:15:46;5.18;;;4.68;;
54259;SDS011;40172;53.022;7.012;2023-04-24T01:18:13;5.63;;;5.05;;
54259;SDS011;40172;53.022;7.012;2023-04-24T01:20:40;4.85;;;4.45;;
54259;SDS011;40172;53.022;7.012;2023-04-24T01:23:07;4.90;;;4.40;;
54259;SDS011;40172;53.022;7.012;2023-04-24T01:25:33;4.88;;;4.35;;
54259;SDS011;40172;53.022;7.012;2023-04-24T01:27:59;4.32;;;3.50;;
54259;SDS011;40172;53.022;7.012;2023-04-24T01:30:25;6.88;;;3.45;;
54259;SDS011;40172;53.022;7.012;2023-04-24T01:32:52;3.92;;;3.25;;
54259;SDS011;40172;53.022;7.012;2023-04-24T01:35:18;3.63;;;3.33;;
54259;SDS011;40172;53.022;7.012;2023-04-24T01:37:45;3.80;;;3.45;;
54259;SDS011;40172;53.022;7.012;2023-04-24T01:40:10;5.22;;;3.30;;
54259;SDS011;40172;53.022;7.012;2023-04-24T01:42:36;3.78;;;3.40;;
54259;SDS011;40172;53.022;7.012;2023-04-24T01:45:03;3.63;;;3.33;;
54259;SDS011;40172;53.022;7.012;2023-04-24T01:47:30;4.07;;;3.67;;
54259;SDS011;40172;53.022;7.012;2023-04-24T01:49:56;4.05;;;3.70;;
54259;SDS011;40172;53.022;7.012;2023-04-24T01:52:22;4.35;;;3.95;;
54259;SDS011;40172;53.022;7.012;2023-04-24T01:54:48;4.40;;;4.00;;
54259;SDS011;40172;53.022;7.012;2023-04-24T01:57:14;4.53;;;4.10;;
54259;SDS011;40172;53.022;7.012;2023-04-24T01:59:41;4.80;;;4.40;;
54259;SDS011;40172;53.022;7.012;2023-04-24T02:02:07;4.95;;;4.18;;
54259;SDS011;40172;53.022;7.012;2023-04-24T02:04:33;4.93;;;4.53;;
54259;SDS011;40172;53.022;7.012;2023-04-24T02:07:04;5.43;;;4.78;;
54259;SDS011;40172;53.022;7.012;2023-04-24T02:09:30;5.10;;;4.70;;
54259;SDS011;40172;53.022;7.012;2023-04-24T02:11:55;5.32;;;4.93;;
54259;SDS011;40172;53.022;7.012;2023-04-24T02:14:21;5.60;;;5.10;;
54259;SDS011;40172;53.022;7.012;2023-04-24T02:16:46;5.68;;;5.28;;
54259;SDS011;40172;53.022;7.012;2023-04-24T02:19:12;5.70;;;5.20;;
54259;SDS011;40172;53.022;7.012;2023-04-24T02:21:38;5.90;;;5.30;;
54259;SDS011;40172;53.022;7.012;2023-04-24T02:24:03;6.45;;;5.85;;
54259;SDS011;40172;53.022;7.012;2023-04-24T02:26:29;5.90;;;5.40;;
54259;SDS011;40172;53.022;7.012;2023-04-24T02:28:56;6.05;;;5.30;;
54259;SDS011;40172;53.022;7.012;2023-04-24T02:31:22;6.10;;;5.53;;
54259;SDS011;40172;53.022;7.012;2023-04-24T02:33:47;5.78;;;5.28;;
54259;SDS011;40172;53.022;7.012;2023-04-24T02:36:13;6.18;;;5.68;;
54259;SDS011;40172;53.022;7.012;2023-04-24T02:38:39;6.28;;;5.78;;
54259;SDS011;40172;53.022;7.012;2023-04-24T02:41:04;5.85;;;5.35;;
54259;SDS011;40172;53.022;7.012;2023-04-24T02:43:31;5.57;;;5.07;;
54259;SDS011;40172;53.022;7.012;2023-04-24T02:45:58;5.97;;;5.47;;
54259;SDS011;40172;53.022;7.012;2023-04-24T02:48:24;6.13;;;5.63;;
54259;SDS011;40172;53.022;7.012;2023-04-24T02:50:49;7.05;;;6.35;;
54259;SDS011;40172;53.022;7.012;2023-04-24T02:53:15;7.15;;;6.50;;
54259;SDS011;40172;53.022;7.012;2023-04-24T02:55:41;7.20;;;6.53;;
54259;SDS011;40172;53.022;7.012;2023-04-24T02:58:07;8.00;;;7.22;;
54259;SDS011;40172;53.022;7.012;2023-04-24T03:00:32;7.80;;;7.10;;
54259;SDS011;40172;53.022;7.012;2023-04-24T03:02:58;8.25;;;7.40;;
54259;SDS011;40172;53.022;7.012;2023-04-24T03:05:23;8.52;;;7.60;;
54259;SDS011;40172;53.022;7.012;2023-04-24T03:07:50;10.10;;;7.93;;
54259;SDS011;40172;53.022;7.012;2023-04-24T03:10:19;8.52;;;7.60;;
54259;SDS011;40172;53.022;7.012;2023-04-24T03:12:44;8.48;;;7.78;;
54259;SDS011;40172;53.022;7.012;2023-04-24T03:15:10;8.02;;;7.32;;
54259;SDS011;40172;53.022;7.012;2023-04-24T03:17:35;9.00;;;8.10;;
54259;SDS011;40172;53.022;7.012;2023-04-24T03:20:02;9.48;;;8.07;;
54259;SDS011;40172;53.022;7.012;2023-04-24T03:22:30;8.13;;;7.43;;
54259;SDS011;40172;53.022;7.012;2023-04-24T03:24:57;8.98;;;8.18;;
54259;SDS011;40172;53.022;7.012;2023-04-24T03:27:23;9.50;;;8.60;;
54259;SDS011;40172;53.022;7.012;2023-04-24T03:29:48;8.63;;;7.82;;
54259;SDS011;40172;53.022;7.012;2023-04-24T03:32:18;9.82;;;8.93;;
54259;SDS011;40172;53.022;7.012;2023-04-24T03:34:44;10.05;;;9.05;;
54259;SDS011;40172;53.022;7.012;2023-04-24T03:37:10;9.70;;;8.77;;
54259;SDS011;40172;53.022;7.012;2023-04-24T03:39:35;9.60;;;8.18;;
54259;SDS011;40172;53.022;7.012;2023-04-24T03:42:01;8.88;;;8.07;;
54259;SDS011;40172;53.022;7.012;2023-04-24T03:44:26;9.45;;;7.88;;
54259;SDS011;40172;53.022;7.012;2023-04-24T03:46:52;9.18;;;8.27;;
54259;SDS011;40172;53.022;7.012;2023-04-24T03:49:18;9.48;;;8.60;;
54259;SDS011;40172;53.022;7.012;2023-04-24T03:51:43;8.88;;;8.07;;
54259;SDS011;40172;53.022;7.012;2023-04-24T03:54:09;8.70;;;7.72;;
54259;SDS011;40172;53.022;7.012;2023-04-24T03:56:34;8.50;;;7.80;;
54259;SDS011;40172;53.022;7.012;2023-04-24T03:59:00;9.55;;;8.07;;
54259;SDS011;40172;53.022;7.012;2023-04-24T04:01:25;8.70;;;7.80;;
54259;SDS011;40172;53.022;7.012;2023-04-24T04:03:53;8.07;;;7.38;;
54259;SDS011;40172;53.022;7.012;2023-04-24T04:06:18;8.40;;;7.53;;
54259;SDS011;40172;53.022;7.012;2023-04-24T04:08:44;8.93;;;8.05;;
54259;SDS011;40172;53.022;7.012;2023-04-24T04:11:10;9.00;;;8.10;;
54259;SDS011;40172;53.022;7.012;2023-04-24T04:13:35;8.90;;;8.10;;
54259;SDS011;40172;53.022;7.012;2023-04-24T04:16:01;8.88;;;7.82;;
54259;SDS011;40172;53.022;7.012;2023-04-24T04:18:27;9.40;;;8.07;;
54259;SDS011;40172;53.022;7.012;2023-04-24T04:20:58;8.82;;;7.97;;
54259;SDS011;40172;53.022;7.012;2023-04-24T04:23:29;8.65;;;7.80;;
54259;SDS011;40172;53.022;7.012;2023-04-24T04:25:55;8.85;;;7.95;;
54259;SDS011;40172;53.022;7.012;2023-04-24T04:28:20;9.73;;;8.10;;
54259;SDS011;40172;53.022;7.012;2023-04-24T04:30:46;9.73;;;8.73;;
54259;SDS011;40172;53.022;7.012;2023-04-24T04:33:12;9.80;;;8.63;;
54259;SDS011;40172;53.022;7.012;2023-04-24T04:35:39;9.82;;;8.80;;
54259;SDS011;40172;53.022;7.012;2023-04-24T04:38:08;9.73;;;8.82;;
54259;SDS011;40172;53.022;7.012;2023-04-24T04:40:38;10.27;;;9.10;;
54259;SDS011;40172;53.022;7.012;2023-04-24T04:43:08;9.13;;;8.25;;
54259;SDS011;40172;53.022;7.012;2023-04-24T04:45:33;9.75;;;8.85;;
54259;SDS011;40172;53.022;7.012;2023-04-24T04:47:59;9.68;;;8.80;;
54259;SDS011;40172;53.022;7.012;2023-04-24T04:50:27;9.90;;;9.00;;
54259;SDS011;40172;53.022;7.012;2023-04-24T04:52:53;11.23;;;9.43;;
54259;SDS011;40172;53.022;7.012;2023-04-24T04:55:18;10.70;;;9.68;;
54259;SDS011;40172;53.022;7.012;2023-04-24T04:57:47;10.30;;;9.40;;
54259;SDS011;40172;53.022;7.012;2023-04-24T05:00:13;10.05;;;9.15;;
54259;SDS011;40172;53.022;7.012;2023-04-24T05:02:38;9.82;;;8.93;;
54259;SDS011;40172;53.022;7.012;2023-04-24T05:05:05;10.70;;;9.60;;
54259;SDS011;40172;53.022;7.012;2023-04-24T05:07:33;9.48;;;8.57;;
54259;SDS011;40172;53.022;7.012;2023-04-24T05:09:58;9.90;;;8.90;;
54259;SDS011;40172;53.022;7.012;2023-04-24T05:12:24;9.32;;;8.40;;
54259;SDS011;40172;53.022;7.012;2023-04-24T05:14:53;8.88;;;8.05;;
54259;SDS011;40172;53.022;7.012;2023-04-24T05:17:19;9.55;;;8.55;;
54259;SDS011;40172;53.022;7.012;2023-04-24T05:19:45;9.02;;;8.20;;
54259;SDS011;40172;53.022;7.012;2023-04-24T05:22:11;9.85;;;8.38;;
54259;SDS011;40172;53.022;7.012;2023-04-24T05:24:37;9.38;;;8.02;;
54259;SDS011;40172;53.022;7.012;2023-04-24T05:27:03;8.95;;;8.15;;
54259;SDS011;40172;53.022;7.012;2023-04-24T05:29:32;8.32;;;7.53;;
54259;SDS011;40172;53.022;7.012;2023-04-24T05:31:58;9.23;;;8.40;;
54259;SDS011;40172;53.022;7.012;2023-04-24T05:34:26;9.23;;;8.32;;
54259;SDS011;40172;53.022;7.012;2023-04-24T05:36:52;8.63;;;7.82;;
54259;SDS011;40172;53.022;7.012;2023-04-24T05:39:18;9.05;;;8.10;;
54259;SDS011;40172;53.022;7.012;2023-04-24T05:41:44;8.82;;;8.00;;
54259;SDS011;40172;53.022;7.012;2023-04-24T05:44:10;8.75;;;7.95;;
54259;SDS011;40172;53.022;7.012;2023-04-24T05:46:35;9.35;;;8.55;;
54259;SDS011;40172;53.022;7.012;2023-04-24T05:49:01;9.48;;;8.57;;
54259;SDS011;40172;53.022;7.012;2023-04-24T05:51:27;9.27;;;8.48;;
54259;SDS011;40172;53.022;7.012;2023-04-24T05:53:53;9.15;;;8.25;;
54259;SDS011;40172;53.022;7.012;2023-04-24T05:56:19;9.40;;;8.50;;
54259;SDS011;40172;53.022;7.012;2023-04-24T05:58:45;9.23;;;8.30;;
54259;SDS011;40172;53.022;7.012;2023-04-24T06:01:11;8.88;;;8.00;;
54259;SDS011;40172;53.022;7.012;2023-04-24T06:03:37;8.77;;;7.88;;
54259;SDS011;40172;53.022;7.012;2023-04-24T06:06:05;9.27;;;8.38;;
54259;SDS011;40172;53.022;7.012;2023-04-24T06:08:31;8.88;;;8.02;;
54259;SDS011;40172;53.022;7.012;2023-04-24T06:10:57;9.45;;;8.30;;
54259;SDS011;40172;53.022;7.012;2023-04-24T06:13:23;8.85;;;7.93;;
54259;SDS011;40172;53.022;7.012;2023-04-24T06:15:48;8.88;;;7.97;;
54259;SDS011;40172;53.022;7.012;2023-04-24T06:18:14;9.35;;;8.27;;
54259;SDS011;40172;53.022;7.012;2023-04-24T06:20:40;8.30;;;7.50;;
54259;SDS011;40172;53.022;7.012;2023-04-24T06:23:05;8.45;;;7.53;;
54259;SDS011;40172;53.022;7.012;2023-04-24T06:25:31;7.25;;;6.55;;
54259;SDS011;40172;53.022;7.012;2023-04-24T06:27:57;6.80;;;6.10;;
54259;SDS011;40172;53.022;7.012;2023-04-24T06:30:22;7.72;;;6.32;;
54259;SDS011;40172;53.022;7.012;2023-04-24T06:32:48;6.50;;;5.90;;
54259;SDS011;40172;53.022;7.012;2023-04-24T06:35:14;6.22;;;5.65;;
54259;SDS011;40172;53.022;7.012;2023-04-24T06:37:40;5.60;;;5.03;;
54259;SDS011;40172;53.022;7.012;2023-04-24T06:40:07;6.07;;;5.47;;
54259;SDS011;40172;53.022;7.012;2023-04-24T06:42:33;5.80;;;5.30;;
54259;SDS011;40172;53.022;7.012;2023-04-24T06:45:00;5.78;;;5.10;;
54259;SDS011;40172;53.022;7.012;2023-04-24T06:47:25;5.10;;;4.60;;
54259;SDS011;40172;53.022;7.012;2023-04-24T06:49:51;5.40;;;4.68;;
54259;SDS011;40172;53.022;7.012;2023-04-24T06:52:17;5.72;;;4.70;;
54259;SDS011;40172;53.022;7.012;2023-04-24T06:54:43;5.20;;;4.70;;
54259;SDS011;40172;53.022;7.012;2023-04-24T06:57:09;4.60;;;4.13;;
54259;SDS011;40172;53.022;7.012;2023-04-24T06:59:35;5.63;;;4.75;;
54259;SDS011;40172;53.022;7.012;2023-04-24T07:02:01;4.95;;;4.45;;
54259;SDS011;40172;53.022;7.012;2023-04-24T07:04:28;5.03;;;4.53;;
54259;SDS011;40172;53.022;7.012;2023-04-24T07:06:54;5.03;;;4.53;;
54259;SDS011;40172;53.022;7.012;2023-04-24T07:09:21;5.85;;;4.53;;
54259;SDS011;40172;53.022;7.012;2023-04-24T07:11:48;5.07;;;4.57;;
54259;SDS011;40172;53.022;7.012;2023-04-24T07:14:15;4.95;;;4.28;;
54259;SDS011;40172;53.022;7.012;2023-04-24T07:16:40;4.78;;;4.10;;
54259;SDS011;40172;53.022;7.012;2023-04-24T07:19:07;5.65;;;4.00;;
54259;SDS011;40172;53.022;7.012;2023-04-24T07:21:32;4.47;;;3.88;;
54259;SDS011;40172;53.022;7.012;2023-04-24T07:23:58;3.80;;;3.50;;
54259;SDS011;40172;53.022;7.012;2023-04-24T07:26:24;4.70;;;3.85;;
54259;SDS011;40172;53.022;7.012;2023-04-24T07:28:50;3.85;;;3.28;;
54259;SDS011;40172;53.022;7.012;2023-04-24T07:31:16;3.85;;;3.30;;
54259;SDS011;40172;53.022;7.012;2023-04-24T07:33:42;3.70;;;3.30;;
54259;SDS011;40172;53.022;7.012;2023-04-24T07:36:07;5.07;;;3.63;;
54259;SDS011;40172;53.022;7.012;2023-04-24T07:38:33;3.92;;;3.53;;
54259;SDS011;40172;53.022;7.012;2023-04-24T07:40:58;3.33;;;2.97;;
54259;SDS011;40172;53.022;7.012;2023-04-24T07:43:24;3.10;;;2.80;;
54259;SDS011;40172;53.022;7.012;2023-04-24T07:45:50;3.10;;;2.40;;
54259;SDS011;40172;53.022;7.012;2023-04-24T07:48:16;3.97;;;3.00;;
54259;SDS011;40172;53.022;7.012;2023-04-24T07:50:43;2.53;;;2.33;;
54259;SDS011;40172;53.022;7.012;2023-04-24T07:53:09;4.05;;;3.20;;
54259;SDS011;40172;53.022;7.012;2023-04-24T07:55:35;3.60;;;3.03;;
54259;SDS011;40172;53.022;7.012;2023-04-24T07:58:01;3.53;;;3.10;;
54259;SDS011;40172;53.022;7.012;2023-04-24T08:00:27;4.00;;;3.47;;
54259;SDS011;40172;53.022;7.012;2023-04-24T08:02:52;3.97;;;3.10;;
54259;SDS011;40172;53.022;7.012;2023-04-24T08:05:18;5.28;;;4.35;;
54259;SDS011;40172;53.022;7.012;2023-04-24T08:07:44;5.88;;;4.55;;
54259;SDS011;40172;53.022;7.012;2023-04-24T08:10:13;5.70;;;4.25;;
54259;SDS011;40172;53.022;7.012;2023-04-24T08:12:40;6.63;;;3.80;;
54259;SDS011;40172;53.022;7.012;2023-04-24T08:15:06;2.72;;;1.88;;
54259;SDS011;40172;53.022;7.012;2023-04-24T08:17:32;2.88;;;1.35;;
54259;SDS011;40172;53.022;7.012;2023-04-24T08:19:58;3.50;;;1.65;;
54259;SDS011;40172;53.022;7.012;2023-04-24T08:22:26;2.45;;;1.70;;
54259;SDS011;40172;53.022;7.012;2023-04-24T08:24:53;3.55;;;1.98;;
54259;SDS011;40172;53.022;7.012;2023-04-24T08:27:19;3.90;;;2.38;;
54259;SDS011;40172;53.022;7.012;2023-04-24T08:29:45;6.45;;;2.88;;
54259;SDS011;40172;53.022;7.012;2023-04-24T08:32:10;3.83;;;2.45;;
54259;SDS011;40172;53.022;7.012;2023-04-24T08:34:36;4.13;;;2.20;;
54259;SDS011;40172;53.022;7.012;2023-04-24T08:37:02;8.73;;;3.30;;
54259;SDS011;40172;53.022;7.012;2023-04-24T08:39:28;8.02;;;3.53;;
54259;SDS011;40172;53.022;7.012;2023-04-24T08:41:54;8.88;;;4.97;;
54259;SDS011;40172;53.022;7.012;2023-04-24T08:44:20;7.18;;;4.90;;
54259;SDS011;40172;53.022;7.012;2023-04-24T08:46:47;9.70;;;5.75;;
54259;SDS011;40172;53.022;7.012;2023-04-24T08:49:14;12.65;;;6.45;;
54259;SDS011;40172;53.022;7.012;2023-04-24T08:51:43;12.77;;;6.88;;
54259;SDS011;40172;53.022;7.012;2023-04-24T08:54:10;12.77;;;7.97;;
54259;SDS011;40172;53.022;7.012;2023-04-24T08:56:37;14.88;;;8.60;;
54259;SDS011;40172;53.022;7.012;2023-04-24T08:59:05;14.27;;;8.20;;
54259;SDS011;40172;53.022;7.012;2023-04-24T09:01:32;11.35;;;8.85;;
54259;SDS011;40172;53.022;7.012;2023-04-24T09:04:04;20.50;;;10.05;;
54259;SDS011;40172;53.022;7.012;2023-04-24T09:06:31;23.65;;;12.43;;
54259;SDS011;40172;53.022;7.012;2023-04-24T09:08:59;26.42;;;15.00;;
54259;SDS011;40172;53.022;7.012;2023-04-24T09:11:26;25.08;;;14.07;;
54259;SDS011;40172;53.022;7.012;2023-04-24T09:13:52;26.05;;;16.08;;
54259;SDS011;40172;53.022;7.012;2023-04-24T09:16:20;34.83;;;18.27;;
54259;SDS011;40172;53.022;7.012;2023-04-24T09:18:45;33.78;;;18.13;;
54259;SDS011;40172;53.022;7.012;2023-04-24T09:21:11;29.88;;;18.88;;
54259;SDS011;40172;53.022;7.012;2023-04-24T09:23:37;40.30;;;20.05;;
54259;SDS011;40172;53.022;7.012;2023-04-24T09:26:03;33.53;;;19.60;;
54259;SDS011;40172;53.022;7.012;2023-04-24T09:28:37;36.35;;;19.95;;
54259;SDS011;40172;53.022;7.012;2023-04-24T09:31:05;37.00;;;20.15;;
54259;SDS011;40172;53.022;7.012;2023-04-24T09:33:37;35.03;;;18.73;;
54259;SDS011;40172;53.022;7.012;2023-04-24T09:36:03;35.58;;;19.65;;
54259;SDS011;40172;53.022;7.012;2023-04-24T09:38:33;37.60;;;19.23;;
54259;SDS011;40172;53.022;7.012;2023-04-24T09:41:03;37.03;;;21.37;;
54259;SDS011;40172;53.022;7.012;2023-04-24T09:43:31;37.13;;;20.45;;
54259;SDS011;40172;53.022;7.012;2023-04-24T09:45:57;33.58;;;20.88;;
54259;SDS011;40172;53.022;7.012;2023-04-24T09:48:33;44.72;;;21.08;;
54259;SDS011;40172;53.022;7.012;2023-04-24T09:51:01;36.95;;;20.48;;
54259;SDS011;40172;53.022;7.012;2023-04-24T09:53:28;33.38;;;19.85;;
54259;SDS011;40172;53.022;7.012;2023-04-24T09:55:55;30.15;;;17.63;;
54259;SDS011;40172;53.022;7.012;2023-04-24T09:58:24;33.78;;;17.70;;
54259;SDS011;40172;53.022;7.012;2023-04-24T10:00:53;25.75;;;18.77;;
54259;SDS011;40172;53.022;7.012;2023-04-24T10:03:20;31.25;;;19.48;;
54259;SDS011;40172;53.022;7.012;2023-04-24T10:05:46;34.97;;;20.30;;
54259;SDS011;40172;53.022;7.012;2023-04-24T10:08:12;33.65;;;21.48;;
54259;SDS011;40172;53.022;7.012;2023-04-24T10:10:42;32.58;;;21.88;;
54259;SDS011;40172;53.022;7.012;2023-04-24T10:13:09;32.05;;;22.25;;
54259;SDS011;40172;53.022;7.012;2023-04-24T10:15:39;37.70;;;22.45;;
54259;SDS011;40172;53.022;7.012;2023-04-24T10:18:06;27.67;;;18.98;;
54259;SDS011;40172;53.022;7.012;2023-04-24T10:20:33;24.95;;;17.60;;
54259;SDS011;40172;53.022;7.012;2023-04-24T10:23:00;29.92;;;17.90;;
54259;SDS011;40172;53.022;7.012;2023-04-24T10:25:30;26.10;;;17.95;;
54259;SDS011;40172;53.022;7.012;2023-04-24T10:27:57;29.02;;;16.67;;
54259;SDS011;40172;53.022;7.012;2023-04-24T10:30:25;26.05;;;16.83;;
54259;SDS011;40172;53.022;7.012;2023-04-24T10:33:03;31.38;;;17.30;;
54259;SDS011;40172;53.022;7.012;2023-04-24T10:35:37;22.38;;;16.85;;
54259;SDS011;40172;53.022;7.012;2023-04-24T10:38:07;25.13;;;16.90;;
54259;SDS011;40172;53.022;7.012;2023-04-24T10:40:38;27.13;;;17.83;;
54259;SDS011;40172;53.022;7.012;2023-04-24T10:43:05;26.00;;;16.73;;
54259;SDS011;40172;53.022;7.012;2023-04-24T10:45:33;33.65;;;18.85;;
54259;SDS011;40172;53.022;7.012;2023-04-24T10:47:59;28.98;;;18.15;;
54259;SDS011;40172;53.022;7.012;2023-04-24T10:50:28;30.30;;;16.63;;
54259;SDS011;40172;53.022;7.012;2023-04-24T10:53:05;27.35;;;16.15;;
54259;SDS011;40172;53.022;7.012;2023-04-24T10:55:42;25.67;;;14.38;;
54259;SDS011;40172;53.022;7.012;2023-04-24T10:58:09;21.75;;;11.20;;
54259;SDS011;40172;53.022;7.012;2023-04-24T11:00:37;17.88;;;8.65;;
54259;SDS011;40172;53.022;7.012;2023-04-24T11:03:06;16.27;;;6.70;;
54259;SDS011;40172;53.022;7.012;2023-04-24T11:05:49;12.82;;;4.72;;
54259;SDS011;40172;53.022;7.012;2023-04-24T11:11:02;14.77;;;4.47;;
54259;SDS011;40172;53.022;7.012;2023-04-24T11:19:00;12.18;;;4.18;;
54259;SDS011;40172;53.022;7.012;2023-04-24T11:21:42;12.07;;;4.30;;
54259;SDS011;40172;53.022;7.012;2023-04-24T11:26:57;11.00;;;4.05;;
54259;SDS011;40172;53.022;7.012;2023-04-24T11:34:52;13.00;;;4.18;;
54259;SDS011;40172;53.022;7.012;2023-04-24T11:37:36;12.25;;;3.38;;
54259;SDS011;40172;53.022;7.012;2023-04-24T11:40:07;9.65;;;3.30;;
54259;SDS011;40172;53.022;7.012;2023-04-24T11:42:34;9.10;;;3.22;;
54259;SDS011;40172;53.022;7.012;2023-04-24T11:45:01;12.45;;;4.25;;
54259;SDS011;40172;53.022;7.012;2023-04-24T11:47:32;10.82;;;3.67;;
54259;SDS011;40172;53.022;7.012;2023-04-24T11:50:00;11.90;;;3.42;;
54259;SDS011;40172;53.022;7.012;2023-04-24T11:52:29;10.70;;;3.08;;
54259;SDS011;40172;53.022;7.012;2023-04-24T11:54:55;8.32;;;2.65;;
54259;SDS011;40172;53.022;7.012;2023-04-24T11:57:22;10.90;;;3.17;;
54259;SDS011;40172;53.022;7.012;2023-04-24T11:59:51;8.82;;;2.88;;
54259;SDS011;40172;53.022;7.012;2023-04-24T12:02:20;8.55;;;2.80;;
54259;SDS011;40172;53.022;7.012;2023-04-24T12:04:47;14.55;;;3.50;;
54259;SDS011;40172;53.022;7.012;2023-04-24T12:07:13;13.02;;;3.45;;
54259;SDS011;40172;53.022;7.012;2023-04-24T12:09:42;10.68;;;2.83;;
54259;SDS011;40172;53.022;7.012;2023-04-24T12:12:13;9.68;;;3.00;;
54259;SDS011;40172;53.022;7.012;2023-04-24T12:17:16;10.32;;;2.70;;
54259;SDS011;40172;53.022;7.012;2023-04-24T12:19:46;8.30;;;2.60;;
54259;SDS011;40172;53.022;7.012;2023-04-24T12:22:12;9.00;;;2.70;;
54259;SDS011;40172;53.022;7.012;2023-04-24T12:27:24;11.15;;;3.03;;
54259;SDS011;40172;53.022;7.012;2023-04-24T12:29:51;9.73;;;2.60;;
54259;SDS011;40172;53.022;7.012;2023-04-24T12:32:18;9.30;;;3.28;;
54259;SDS011;40172;53.022;7.012;2023-04-24T12:34:44;14.68;;;3.22;;
54259;SDS011;40172;53.022;7.012;2023-04-24T12:37:10;8.40;;;2.38;;
54259;SDS011;40172;53.022;7.012;2023-04-24T12:39:36;10.85;;;2.70;;
54259;SDS011;40172;53.022;7.012;2023-04-24T12:42:02;7.05;;;2.70;;
54259;SDS011;40172;53.022;7.012;2023-04-24T12:44:34;9.85;;;2.65;;
54259;SDS011;40172;53.022;7.012;2023-04-24T12:47:00;7.50;;;2.38;;
54259;SDS011;40172;53.022;7.012;2023-04-24T12:49:27;8.40;;;2.30;;
54259;SDS011;40172;53.022;7.012;2023-04-24T12:51:52;6.57;;;2.22;;
54259;SDS011;40172;53.022;7.012;2023-04-24T12:54:19;8.18;;;2.60;;
54259;SDS011;40172;53.022;7.012;2023-04-24T12:56:44;14.15;;;2.85;;
54259;SDS011;40172;53.022;7.012;2023-04-24T12:59:10;7.85;;;2.30;;
54259;SDS011;40172;53.022;7.012;2023-04-24T13:01:35;10.35;;;2.65;;
54259;SDS011;40172;53.022;7.012;2023-04-24T13:04:01;10.40;;;2.33;;
54259;SDS011;40172;53.022;7.012;2023-04-24T13:06:26;10.20;;;2.38;;
54259;SDS011;40172;53.022;7.012;2023-04-24T13:08:52;11.38;;;2.40;;
54259;SDS011;40172;53.022;7.012;2023-04-24T13:11:19;10.88;;;3.28;;
54259;SDS011;40172;53.022;7.012;2023-04-24T13:13:46;7.90;;;2.42;;
54259;SDS011;40172;53.022;7.012;2023-04-24T13:16:12;8.10;;;2.40;;
54259;SDS011;40172;53.022;7.012;2023-04-24T13:18:37;11.20;;;2.92;;
54259;SDS011;40172;53.022;7.012;2023-04-24T13:21:03;10.65;;;2.45;;
54259;SDS011;40172;53.022;7.012;2023-04-24T13:23:29;11.50;;;2.88;;
54259;SDS011;40172;53.022;7.012;2023-04-24T13:25:54;8.48;;;2.35;;
54259;SDS011;40172;53.022;7.012;2023-04-24T13:28:22;6.90;;;2.38;;
54259;SDS011;40172;53.022;7.012;2023-04-24T13:30:48;7.88;;;2.22;;
54259;SDS011;40172;53.022;7.012;2023-04-24T13:33:14;7.15;;;1.92;;
54259;SDS011;40172;53.022;7.012;2023-04-24T13:35:39;7.15;;;1.90;;
54259;SDS011;40172;53.022;7.012;2023-04-24T13:38:05;11.73;;;2.05;;
54259;SDS011;40172;53.022;7.012;2023-04-24T13:40:31;7.22;;;2.10;;
54259;SDS011;40172;53.022;7.012;2023-04-24T13:42:57;9.55;;;2.00;;
54259;SDS011;40172;53.022;7.012;2023-04-24T13:45:23;7.15;;;1.88;;
54259;SDS011;40172;53.022;7.012;2023-04-24T13:47:48;6.72;;;1.88;;
54259;SDS011;40172;53.022;7.012;2023-04-24T13:50:14;10.38;;;2.22;;
54259;SDS011;40172;53.022;7.012;2023-04-24T13:52:40;8.55;;;1.90;;
54259;SDS011;40172;53.022;7.012;2023-04-24T13:55:06;9.15;;;2.03;;
54259;SDS011;40172;53.022;7.012;2023-04-24T13:57:32;10.60;;;2.33;;
54259;SDS011;40172;53.022;7.012;2023-04-24T13:59:57;9.32;;;2.15;;
54259;SDS011;40172;53.022;7.012;2023-04-24T14:02:26;6.03;;;1.52;;
54259;SDS011;40172;53.022;7.012;2023-04-24T14:04:52;6.38;;;1.80;;
54259;SDS011;40172;53.022;7.012;2023-04-24T14:07:18;6.45;;;1.70;;
54259;SDS011;40172;53.022;7.012;2023-04-24T14:09:43;9.80;;;1.63;;
54259;SDS011;40172;53.022;7.012;2023-04-24T14:12:09;7.05;;;1.50;;
54259;SDS011;40172;53.022;7.012;2023-04-24T14:14:35;9.25;;;2.00;;
54259;SDS011;40172;53.022;7.012;2023-04-24T14:17:00;5.97;;;1.30;;
54259;SDS011;40172;53.022;7.012;2023-04-24T14:19:26;5.00;;;1.40;;
54259;SDS011;40172;53.022;7.012;2023-04-24T14:21:51;6.78;;;1.50;;
54259;SDS011;40172;53.022;7.012;2023-04-24T14:24:17;4.75;;;1.30;;
54259;SDS011;40172;53.022;7.012;2023-04-24T14:26:43;5.18;;;1.10;;
54259;SDS011;40172;53.022;7.012;2023-04-24T14:29:09;4.32;;;1.02;;
54259;SDS011;40172;53.022;7.012;2023-04-24T14:31:34;4.78;;;1.20;;
54259;SDS011;40172;53.022;7.012;2023-04-24T14:34:00;3.83;;;1.13;;
54259;SDS011;40172;53.022;7.012;2023-04-24T14:36:25;3.45;;;1.10;;
54259;SDS011;40172;53.022;7.012;2023-04-24T14:38:51;4.63;;;1.05;;
54259;SDS011;40172;53.022;7.012;2023-04-24T14:41:17;2.67;;;1.10;;
54259;SDS011;40172;53.022;7.012;2023-04-24T14:43:42;4.78;;;1.33;;
54259;SDS011;40172;53.022;7.012;2023-04-24T14:46:08;4.90;;;1.35;;
54259;SDS011;40172;53.022;7.012;2023-04-24T14:48:33;7.72;;;1.52;;
54259;SDS011;40172;53.022;7.012;2023-04-24T14:50:59;5.60;;;1.70;;
54259;SDS011;40172;53.022;7.012;2023-04-24T14:53:25;4.57;;;1.27;;
54259;SDS011;40172;53.022;7.012;2023-04-24T14:55:50;3.80;;;1.20;;
54259;SDS011;40172;53.022;7.012;2023-04-24T14:58:16;7.82;;;1.98;;
54259;SDS011;40172;53.022;7.012;2023-04-24T15:00:41;9.05;;;1.80;;